Time;durP1;ratioP1;P1;durP2;ratioP2;P2;SDS_P1;SDS_P2;PMS_P1;PMS_P2;Temp;Humidity;BMP_temperature;BMP_pressure;BME280_temperature;BME280_humidity;BME280_pressure;Samples;Min_cycle;Max_cycle;Signal;HPM_P1;HPM_P2
2023/02/14 00:01:39;;;;;;;49.33;40.85;;;27.00;81.40;;;;;;1819272;78;21155;-83
2023/02/14 00:04:10;;;;;;;53.92;44.83;;;27.00;81.50;;;;;;1814451;78;21618;-83
2023/02/14 00:06:41;;;;;;;58.13;46.35;;;27.00;81.60;;;;;;1812712;79;21182;-82
2023/02/14 00:09:16;;;;;;;54.33;45.08;;;26.90;81.90;;;;;;1812688;77;21221;-83
2023/02/14 00:11:47;;;;;;;56.00;43.78;;;26.90;82.10;;;;;;1788712;79;21212;-83
2023/02/14 00:17:07;;;;;;;54.33;41.13;;;26.90;82.50;;;;;;1812481;79;21186;-82
2023/02/14 00:19:37;;;;;;;48.80;38.85;;;26.90;82.60;;;;;;1812722;78;21167;-83
2023/02/14 00:22:08;;;;;;;55.03;39.98;;;27.00;82.50;;;;;;1812696;78;21217;-84
2023/02/14 00:24:39;;;;;;;59.90;44.30;;;27.00;83.90;;;;;;1812635;79;21147;-83
2023/02/14 00:27:09;;;;;;;64.32;44.00;;;27.00;83.90;;;;;;1812536;79;21237;-83
2023/02/14 00:29:40;;;;;;;57.40;42.53;;;27.00;84.40;;;;;;1812695;78;21143;-82
2023/02/14 00:32:11;;;;;;;65.22;44.58;;;26.90;84.10;;;;;;1812663;78;21357;-83
2023/02/14 00:34:42;;;;;;;54.25;44.33;;;26.90;83.60;;;;;;1804121;78;21214;-83
2023/02/14 00:37:13;;;;;;;56.08;44.45;;;26.90;83.70;;;;;;1800673;79;21132;-82
2023/02/14 00:39:43;;;;;;;62.35;44.98;;;26.90;84.00;;;;;;1798467;79;21136;-83
2023/02/14 00:42:15;;;;;;;60.73;44.20;;;26.80;84.10;;;;;;1798313;80;21158;-84
2023/02/14 00:44:45;;;;;;;64.80;48.52;;;26.90;84.50;;;;;;1798340;80;21662;-82
2023/02/14 00:47:16;;;;;;;68.35;52.62;;;26.90;84.60;;;;;;1798391;80;21225;-84
2023/02/14 00:49:47;;;;;;;67.08;51.13;;;26.90;84.60;;;;;;1798337;80;21214;-84
2023/02/14 00:52:17;;;;;;;76.40;53.45;;;27.00;84.80;;;;;;1798312;80;21234;-83
2023/02/14 00:54:48;;;;;;;65.83;52.80;;;27.00;84.70;;;;;;1799743;79;21661;-84
2023/02/14 00:57:19;;;;;;;69.97;52.13;;;27.00;84.70;;;;;;1800018;80;21467;-84
2023/02/14 00:59:49;;;;;;;66.15;51.60;;;27.00;84.80;;;;;;1800059;80;21152;-83
2023/02/14 01:02:20;;;;;;;65.20;53.10;;;27.00;84.50;;;;;;1762419;79;21171;-84
2023/02/14 01:04:51;;;;;;;81.30;65.25;;;27.00;84.20;;;;;;1755074;80;21488;-83
2023/02/14 01:07:22;;;;;;;70.90;57.85;;;27.10;84.30;;;;;;1759873;80;21175;-85
2023/02/14 01:09:52;;;;;;;83.15;62.98;;;27.10;83.80;;;;;;1794489;79;21277;-83
2023/02/14 01:12:23;;;;;;;75.80;58.58;;;27.10;83.70;;;;;;1800844;77;21139;-83
2023/02/14 01:14:54;;;;;;;96.72;71.65;;;27.20;84.10;;;;;;1799789;79;21205;-82
2023/02/14 01:17:25;;;;;;;103.00;90.55;;;27.30;84.00;;;;;;1785915;79;21222;-83
2023/02/14 01:19:56;;;;;;;102.87;85.22;;;27.30;83.20;;;;;;1766651;80;21397;-84
2023/02/14 01:22:27;;;;;;;96.97;79.22;;;27.30;83.60;;;;;;1799606;79;21243;-83
2023/02/14 01:25:11;;;;;;;93.15;75.28;;;27.30;83.50;;;;;;1789965;78;21612;-85
2023/02/14 01:27:39;;;;;;;96.40;77.62;;;27.30;83.50;;;;;;1738124;81;21264;-83
2023/02/14 01:30:56;;;;;;;;;;;;;;;;;;;;;
2023/02/14 01:36:40;;;;;;;81.87;63.75;;;27.50;82.40;;;;;;1718036;79;21166;-85
2023/02/14 01:39:14;;;;;;;69.67;55.78;;;27.60;82.10;;;;;;1795557;79;21194;-85
2023/02/14 01:41:47;;;;;;;67.90;52.60;;;27.60;82.10;;;;;;1794691;78;21609;-86
2023/02/14 01:44:21;;;;;;;62.95;50.05;;;27.70;81.70;;;;;;1796693;79;21206;-85
2023/02/14 01:46:51;;;;;;;60.63;47.17;;;27.70;81.10;;;;;;1797825;80;21143;-85
2023/02/14 01:49:28;;;;;;;58.35;46.35;;;27.80;80.10;;;;;;1794535;80;21203;-84
2023/02/14 01:52:38;;;;;;;55.63;43.28;;;27.80;80.50;;;;;;1778147;79;21223;-84
2023/02/14 01:55:12;;;;;;;59.23;41.35;;;27.90;79.10;;;;;;1772704;79;21312;-84
2023/02/14 01:57:46;;;;;;;57.25;42.53;;;28.00;77.70;;;;;;1801175;80;21076;-83
2023/02/14 02:03:06;;;;;;;50.30;39.63;;;28.10;77.00;;;;;;1795702;79;21358;-80
2023/02/14 02:09:46;;;;;;;52.25;40.52;;;28.20;76.70;;;;;;1643991;84;21275;-78
2023/02/14 02:12:18;;;;;;;51.80;39.30;;;28.20;75.40;;;;;;1597828;88;21233;-78
2023/02/14 02:14:56;;;;;;;52.43;39.30;;;28.30;75.50;;;;;;1637831;86;21316;-83
2023/02/14 02:17:36;;;;;;;50.17;38.53;;;28.40;75.10;;;;;;1658499;84;21207;-83
2023/02/14 02:20:28;;;;;;;51.92;39.42;;;28.50;74.90;;;;;;1775289;78;21980;-80
2023/02/14 02:23:25;;;;;;;52.03;39.35;;;28.60;74.70;;;;;;1796774;79;21186;-79
2023/02/14 02:26:02;;;;;;;46.85;38.25;;;28.70;74.30;;;;;;1771596;79;21325;-78
2023/02/14 02:29:08;;;;;;;47.00;37.80;;;28.80;74.10;;;;;;1795386;79;21214;-80
2023/02/14 02:32:24;;;;;;;55.08;39.10;;;28.90;74.10;;;;;;1805752;79;21353;-82
2023/02/14 02:35:10;;;;;;;;;;;28.90;74.10;;;;;;1799381;77;21225;-79
2023/02/14 02:37:53;;;;;;;46.33;38.38;;;29.10;74.10;;;;;;1843335;76;20549;-79
2023/02/14 02:40:29;;;;;;;46.18;37.78;;;29.20;73.70;;;;;;1844276;76;21387;-78
2023/02/14 02:43:01;;;;;;;;;;;29.30;73.00;;;;;;1837101;76;21202;-82
2023/02/14 02:55:19;;;;;;;53.38;38.23;;;29.70;70.80;;;;;;1850412;76;21214;-79
2023/02/14 02:57:53;;;;;;;50.73;36.48;;;29.80;71.00;;;;;;1853219;76;21181;-77
2023/02/14 03:00:26;;;;;;;47.65;35.55;;;29.90;70.00;;;;;;1842609;76;21227;-81
2023/02/14 03:09:25;;;;;;;44.80;34.78;;;30.20;68.10;;;;;;1731661;81;21557;-81
2023/02/14 03:12:27;;;;;;;44.25;33.10;;;30.40;67.50;;;;;;1765929;79;22205;-81
2023/02/14 03:15:41;;;;;;;40.95;33.02;;;30.50;67.00;;;;;;1786712;79;21889;-80
2023/02/14 03:21:53;;;;;;;43.17;34.33;;;30.90;66.00;;;;;;1802270;78;21794;-81
2023/02/14 03:25:05;;;;;;;45.00;31.75;;;31.10;65.70;;;;;;1849331;77;21759;-80
2023/02/14 03:27:35;;;;;;;35.13;29.35;;;31.20;63.90;;;;;;1850556;77;21114;-80
2023/02/14 03:30:12;;;;;;;37.65;28.90;;;31.30;62.20;;;;;;1850175;77;21158;-81
2023/02/14 03:32:51;;;;;;;31.15;27.37;;;31.40;61.50;;;;;;1848148;77;21126;-84
2023/02/14 03:35:26;;;;;;;30.55;27.27;;;;;;;;;;1819165;76;21231;-81
2023/02/14 03:38:02;;;;;;;35.80;26.93;;;31.70;59.80;;;;;;1793388;79;21159;-82
2023/02/14 03:40:41;;;;;;;32.45;25.90;;;31.80;59.60;;;;;;1735553;82;22093;-83
2023/02/14 03:46:22;;;;;;;25.65;22.17;;;32.00;57.80;;;;;;1814770;77;22033;-80
2023/02/14 03:49:07;;;;;;;24.52;21.65;;;32.10;56.30;;;;;;1835111;76;21138;-80
2023/02/14 03:51:39;;;;;;;32.03;24.00;;;32.20;56.80;;;;;;1847207;76;21135;-82
2023/02/14 03:54:20;;;;;;;27.67;24.65;;;32.30;56.80;;;;;;1854839;76;21727;-80
2023/02/14 03:57:04;;;;;;;30.70;25.80;;;32.40;56.70;;;;;;1845078;76;21205;-78
2023/02/14 03:59:36;;;;;;;29.82;26.57;;;32.50;57.10;;;;;;1840586;76;21174;-78
2023/02/14 04:02:21;;;;;;;33.55;24.37;;;32.60;57.30;;;;;;1838803;76;21227;-79
2023/02/14 04:04:54;;;;;;;28.00;23.97;;;32.70;56.60;;;;;;1830536;77;21136;-82
2023/02/14 04:07:26;;;;;;;27.98;24.82;;;32.80;55.40;;;;;;1828596;77;21678;-80
2023/02/14 04:09:57;;;;;;;29.57;23.95;;;32.90;55.70;;;;;;1832563;76;21273;-81
2023/02/14 04:12:27;;;;;;;26.55;22.02;;;33.00;55.50;;;;;;1853053;76;21096;-80
2023/02/14 04:15:00;;;;;;;25.32;22.67;;;33.10;55.20;;;;;;1850587;76;22006;-81
2023/02/14 04:20:35;;;;;;;27.85;23.15;;;33.20;53.90;;;;;;1823890;76;21941;-80
2023/02/14 04:23:06;;;;;;;25.92;23.22;;;33.30;53.70;;;;;;1815324;78;21147;-80
2023/02/14 04:25:41;;;;;;;27.87;22.58;;;33.40;53.20;;;;;;1825358;77;21209;-80
2023/02/14 04:28:14;;;;;;;27.20;22.50;;;33.40;52.90;;;;;;1828893;77;21153;-79
2023/02/14 04:30:45;;;;;;;27.45;23.52;;;33.40;53.30;;;;;;1814056;77;21163;-80
2023/02/14 04:33:16;;;;;;;25.88;22.13;;;33.50;52.70;;;;;;1815444;77;21118;-77
2023/02/14 04:35:54;;;;;;;24.95;21.30;;;33.50;52.60;;;;;;1834205;77;21126;-82
2023/02/14 04:38:53;;;;;;;24.07;21.57;;;33.70;52.00;;;;;;1754295;80;21170;-80
2023/02/14 04:41:25;;;;;;;25.48;22.22;;;33.80;52.30;;;;;;1804939;78;21135;-80
2023/02/14 04:44:01;;;;;;;24.82;21.75;;;33.90;51.70;;;;;;1820034;77;21248;-82
2023/02/14 04:49:11;;;;;;;28.27;21.85;;;34.00;51.70;;;;;;1745030;79;21170;-86
2023/02/14 04:52:11;;;;;;;;;;;;;;;;;;;;;
2023/02/14 04:54:39;;;;;;;25.77;22.82;;;34.10;51.10;;;;;;1809958;77;21333;-86
2023/02/14 04:57:17;;;;;;;29.23;25.45;;;34.20;51.00;;;;;;1780411;80;21500;-86
2023/02/14 04:59:48;;;;;;;26.15;23.47;;;34.30;51.50;;;;;;1795945;77;21177;-87
2023/02/14 05:02:27;;;;;;;26.70;23.05;;;34.40;51.80;;;;;;1829750;77;21142;-87
2023/02/14 05:05:12;;;;;;;25.85;22.90;;;34.40;51.40;;;;;;1817954;77;21158;-87
2023/02/14 05:07:46;;;;;;;26.27;23.10;;;34.30;51.00;;;;;;1813433;79;21155;-86
2023/02/14 05:10:17;;;;;;;26.05;21.80;;;34.30;51.80;;;;;;1808699;78;21138;-86
2023/02/14 05:12:48;;;;;;;24.60;21.90;;;34.10;51.20;;;;;;1813197;78;21926;-87
2023/02/14 05:15:21;;;;;;;25.57;21.95;;;34.10;52.10;;;;;;1786451;79;21099;-87
2023/02/14 05:17:52;;;;;;;34.20;25.20;;;34.10;51.70;;;;;;1756412;80;21228;-88
2023/02/14 05:20:23;;;;;;;33.63;26.23;;;34.20;52.00;;;;;;1794204;77;21099;-86
2023/02/14 05:22:55;;;;;;;28.95;24.75;;;34.20;52.80;;;;;;1792505;78;21267;-87
2023/02/14 05:25:32;;;;;;;33.95;26.30;;;34.30;53.10;;;;;;1789259;79;21253;-87
2023/02/14 05:28:11;;;;;;;34.03;25.62;;;34.30;53.10;;;;;;1793466;79;21254;-87
2023/02/14 05:31:10;;;;;;;28.60;23.65;;;34.40;52.90;;;;;;1779928;78;21191;-87
2023/02/14 05:34:12;;;;;;;;;;;;;;;;;;;;;
2023/02/14 05:37:33;;;;;;;30.08;24.37;;;34.50;53.20;;;;;;1722681;81;21200;-88
2023/02/14 05:50:18;;;;;;;31.10;23.35;;;34.60;50.90;;;;;;1724578;83;21524;-88
2023/02/14 05:53:11;;;;;;;;;;;;;;;;;;;;;
2023/02/14 05:55:56;;;;;;;29.18;22.52;;;34.30;52.10;;;;;;1631292;87;22206;-88
2023/02/14 05:58:29;;;;;;;26.12;23.40;;;34.20;52.30;;;;;;1669575;83;21164;-89
2023/02/14 06:01:01;;;;;;;30.05;22.30;;;34.10;52.20;;;;;;1720999;80;21120;-88
2023/02/14 06:03:43;;;;;;;25.62;21.77;;;34.20;52.50;;;;;;1767995;80;21116;-88
2023/02/14 06:06:41;;;;;;;25.02;21.02;;;34.30;52.10;;;;;;1767630;81;21121;-87
2023/02/14 06:09:17;;;;;;;24.77;22.20;;;34.30;51.80;;;;;;1786378;80;21111;-89
2023/02/14 06:11:48;;;;;;;24.80;21.37;;;34.30;51.90;;;;;;1791815;80;21157;-89
2023/02/14 06:14:21;;;;;;;25.08;20.50;;;34.10;51.80;;;;;;1790278;80;21101;-87
2023/02/14 06:16:53;;;;;;;22.75;20.55;;;34.10;52.30;;;;;;1793984;79;21168;-85
2023/02/14 06:19:24;;;;;;;25.12;21.48;;;33.90;51.20;;;;;;1795944;79;21109;-87
2023/02/14 06:21:58;;;;;;;27.05;20.82;;;33.90;51.60;;;;;;1806114;78;21207;-88
2023/02/14 06:24:29;;;;;;;23.95;19.73;;;33.80;52.40;;;;;;1821345;77;21625;-87
2023/02/14 06:27:11;;;;;;;25.00;20.40;;;33.80;51.60;;;;;;1822092;78;22050;-88
2023/02/14 06:29:53;;;;;;;26.00;20.25;;;33.70;51.50;;;;;;1822256;78;21236;-88
2023/02/14 06:32:25;;;;;;;20.85;17.67;;;33.60;51.00;;;;;;1797424;78;21177;-78
2023/02/14 06:34:56;;;;;;;20.48;18.35;;;33.60;51.10;;;;;;1778523;78;21164;-79
2023/02/14 06:37:27;;;;;;;21.40;17.90;;;33.60;50.70;;;;;;1764874;80;21257;-77
2023/02/14 06:39:59;;;;;;;22.52;19.27;;;33.60;50.90;;;;;;1774026;79;21157;-78
2023/02/14 06:42:30;;;;;;;22.52;17.70;;;33.50;51.50;;;;;;1822176;78;21131;-80
2023/02/14 06:45:01;;;;;;;23.90;18.90;;;33.50;51.40;;;;;;1820709;77;21171;-78
2023/02/14 06:47:38;;;;;;;22.15;18.80;;;33.50;50.90;;;;;;1806799;78;21866;-80
2023/02/14 06:50:13;;;;;;;23.50;21.02;;;33.50;50.70;;;;;;1820381;77;21251;-76
2023/02/14 06:52:44;;;;;;;21.33;18.98;;;33.50;51.40;;;;;;1818654;78;21172;-81
2023/02/14 06:55:25;;;;;;;19.00;15.23;;;33.50;51.30;;;;;;1819582;78;21669;-78
2023/02/14 06:57:56;;;;;;;20.25;15.88;;;33.60;50.20;;;;;;1819684;77;21265;-78
2023/02/14 07:00:28;;;;;;;19.87;16.27;;;33.70;50.20;;;;;;1817803;78;21092;-82
2023/02/14 07:03:03;;;;;;;18.30;15.88;;;33.80;49.40;;;;;;1817753;78;21159;-78
2023/02/14 07:05:37;;;;;;;17.98;14.95;;;34.00;49.50;;;;;;1815272;79;21203;-82
2023/02/14 07:08:09;;;;;;;16.35;14.63;;;34.10;48.40;;;;;;1827522;77;21111;-78
2023/02/14 07:10:41;;;;;;;18.73;14.80;;;34.20;48.10;;;;;;1820584;78;21132;-78
2023/02/14 07:13:20;;;;;;;16.15;14.47;;;34.40;48.00;;;;;;1803287;78;21648;-79
2023/02/14 07:15:55;;;;;;;18.82;14.95;;;34.50;47.80;;;;;;1814259;78;21140;-80
2023/02/14 07:18:25;;;;;;;16.62;14.43;;;34.60;47.40;;;;;;1813933;78;21889;-79
2023/02/14 07:20:56;;;;;;;17.12;15.30;;;34.60;47.00;;;;;;1811816;79;21225;-81
2023/02/14 07:23:28;;;;;;;16.42;14.70;;;34.70;47.10;;;;;;1799189;79;21111;-81
2023/02/14 07:26:02;;;;;;;18.00;14.35;;;34.70;46.80;;;;;;1795369;80;21107;-82
2023/02/14 07:28:41;;;;;;;15.90;14.30;;;34.70;46.80;;;;;;1796405;80;21107;-79
2023/02/14 07:31:18;;;;;;;17.35;15.10;;;34.70;46.80;;;;;;1776263;79;21088;-80
2023/02/14 07:33:50;;;;;;;14.45;12.50;;;34.70;47.50;;;;;;1785014;80;21134;-77
2023/02/14 07:36:21;;;;;;;17.50;12.78;;;34.70;46.90;;;;;;1784324;80;21106;-77
2023/02/14 07:38:52;;;;;;;17.07;14.07;;;34.70;46.40;;;;;;1783244;80;21566;-80
2023/02/14 07:41:24;;;;;;;21.68;14.28;;;34.70;46.50;;;;;;1784622;79;21618;-79
2023/02/14 07:43:56;;;;;;;16.40;14.70;;;34.70;46.60;;;;;;1780603;80;21150;-79
2023/02/14 07:46:27;;;;;;;15.25;13.75;;;34.70;46.70;;;;;;1774063;79;21230;-81
2023/02/14 07:48:59;;;;;;;18.90;15.13;;;34.70;46.40;;;;;;1774266;81;21177;-78
2023/02/14 07:51:30;;;;;;;17.12;15.03;;;34.70;47.00;;;;;;1774416;81;21176;-79
2023/02/14 07:54:01;;;;;;;19.42;15.60;;;34.70;46.70;;;;;;1786464;78;21197;-76
2023/02/14 07:56:33;;;;;;;21.23;16.50;;;34.70;47.20;;;;;;1786188;80;21190;-80
2023/02/14 07:59:04;;;;;;;20.40;16.02;;;34.70;47.00;;;;;;1784789;80;21858;-81
2023/02/14 08:01:35;;;;;;;18.15;15.43;;;34.70;47.60;;;;;;1782714;80;21171;-81
2023/02/14 08:04:06;;;;;;;17.05;15.35;;;34.70;47.30;;;;;;1775922;80;21127;-78
2023/02/14 08:06:38;;;;;;;18.40;16.07;;;34.70;47.00;;;;;;1785493;78;21124;-76
2023/02/14 08:09:09;;;;;;;17.25;15.40;;;34.70;46.80;;;;;;1780569;79;21164;-81
2023/02/14 08:14:29;;;;;;;18.02;16.10;;;34.70;47.80;;;;;;1805946;79;21815;-77
2023/02/14 08:17:01;;;;;;;19.27;15.75;;;34.70;47.40;;;;;;1805878;79;21271;-78
2023/02/14 08:19:32;;;;;;;18.85;15.63;;;34.70;46.90;;;;;;1788342;78;21158;-76
2023/02/14 08:22:04;;;;;;;18.27;16.20;;;34.70;47.40;;;;;;1784280;79;21174;-78
2023/02/14 08:24:35;;;;;;;19.17;15.63;;;34.70;48.30;;;;;;1786355;80;21224;-77
2023/02/14 08:27:06;;;;;;;16.57;14.55;;;34.70;47.90;;;;;;1785928;80;21523;-79
2023/02/14 08:29:37;;;;;;;17.52;14.63;;;34.70;47.50;;;;;;1791016;78;21151;-77
2023/02/14 08:32:08;;;;;;;17.98;16.10;;;34.70;47.80;;;;;;1786755;80;21134;-77
2023/02/14 08:34:40;;;;;;;16.67;14.63;;;34.70;47.70;;;;;;1786496;80;21711;-77
2023/02/14 08:37:13;;;;;;;18.15;14.87;;;34.70;47.70;;;;;;1786698;80;21186;-76
2023/02/14 08:39:45;;;;;;;18.10;14.83;;;34.70;47.70;;;;;;1787074;79;21610;-78
2023/02/14 08:42:17;;;;;;;17.12;15.25;;;34.70;47.20;;;;;;1785369;80;21864;-79
2023/02/14 08:44:48;;;;;;;17.40;14.70;;;34.60;47.10;;;;;;1780868;80;22050;-78
2023/02/14 08:47:22;;;;;;;17.50;14.60;;;34.60;47.00;;;;;;1779644;80;21165;-78
2023/02/14 08:49:57;;;;;;;16.37;14.68;;;34.60;47.10;;;;;;1774406;78;21224;-79
2023/02/14 08:52:27;;;;;;;21.15;15.30;;;34.60;47.20;;;;;;1764435;81;21152;-78
2023/02/14 08:54:58;;;;;;;17.40;14.63;;;34.60;47.40;;;;;;1762862;81;21242;-77
2023/02/14 08:57:29;;;;;;;18.20;14.83;;;34.60;47.10;;;;;;1770242;80;21138;-77
2023/02/14 09:00:29;;;;;;;19.65;14.93;;;34.60;47.10;;;;;;1781593;78;21502;-76
2023/02/14 09:02:58;;;;;;;16.57;14.40;;;34.50;47.10;;;;;;1780701;79;21925;-78
2023/02/14 09:05:30;;;;;;;16.45;13.35;;;34.50;46.90;;;;;;1799337;78;21165;-77
2023/02/14 09:08:03;;;;;;;17.27;14.43;;;34.50;47.40;;;;;;1793145;79;21272;-79
2023/02/14 09:10:34;;;;;;;16.75;15.03;;;34.50;47.30;;;;;;1793160;79;21525;-79
2023/02/14 09:13:06;;;;;;;17.70;14.75;;;34.40;47.10;;;;;;1799484;78;21208;-81
2023/02/14 09:15:38;;;;;;;16.73;15.03;;;34.50;46.50;;;;;;1766348;80;21161;-79
2023/02/14 09:18:09;;;;;;;16.45;14.65;;;34.40;46.90;;;;;;1773456;80;21113;-82
2023/02/14 09:20:43;;;;;;;16.32;14.63;;;34.40;46.80;;;;;;1790626;78;21293;-81
2023/02/14 09:23:17;;;;;;;15.68;14.18;;;34.40;46.60;;;;;;1786228;78;21639;-79
2023/02/14 09:25:49;;;;;;;18.95;15.30;;;34.50;46.60;;;;;;1825617;78;21168;-79
2023/02/14 09:28:21;;;;;;;16.32;14.63;;;34.40;46.40;;;;;;1815431;77;21299;-79
2023/02/14 09:30:53;;;;;;;18.27;15.45;;;34.40;46.40;;;;;;1798943;78;21143;-80
2023/02/14 09:33:29;;;;;;;19.55;14.85;;;34.40;46.60;;;;;;1799432;79;21750;-79
2023/02/14 09:38:53;;;;;;;23.10;15.23;;;34.40;46.30;;;;;;1794100;77;22016;-78
2023/02/14 09:41:33;;;;;;;20.85;14.30;;;34.40;46.80;;;;;;1790291;77;21151;-80
2023/02/14 09:44:09;;;;;;;18.77;14.18;;;34.40;46.70;;;;;;1804600;78;21132;-79
2023/02/14 09:46:46;;;;;;;18.35;15.13;;;34.30;46.00;;;;;;1805886;77;21097;-80
2023/02/14 09:49:31;;;;;;;16.35;14.00;;;34.30;45.90;;;;;;1797346;77;21980;-80
2023/02/14 09:52:07;;;;;;;15.60;13.93;;;34.30;45.50;;;;;;1800144;77;21144;-81
2023/02/14 09:54:42;;;;;;;16.52;14.33;;;34.30;45.80;;;;;;1798875;77;21162;-78
2023/02/14 09:57:30;;;;;;;17.00;13.35;;;34.20;46.10;;;;;;1753525;80;21405;-82
2023/02/14 10:00:20;;;;;;;16.97;14.93;;;34.20;46.00;;;;;;1756413;80;21219;-78
2023/02/14 10:02:57;;;;;;;17.27;14.93;;;34.10;45.60;;;;;;1767273;79;21921;-83
2023/02/14 10:05:31;;;;;;;16.25;14.38;;;34.20;46.40;;;;;;1764781;79;21105;-82
2023/02/14 10:08:29;;;;;;;16.48;14.35;;;34.10;45.90;;;;;;1820020;77;21165;-80
2023/02/14 10:11:04;;;;;;;16.50;14.33;;;34.10;46.50;;;;;;1813091;78;21170;-81
2023/02/14 10:13:58;;;;;;;18.15;14.60;;;34.00;46.20;;;;;;1805136;77;21597;-77
2023/02/14 10:16:40;;;;;;;20.97;15.15;;;34.00;46.60;;;;;;1802075;77;21157;-82
2023/02/14 10:19:26;;;;;;;18.17;13.50;;;33.90;46.90;;;;;;1813822;77;21136;-78
2023/02/14 10:22:00;;;;;;;;;;;33.90;46.80;;;;;;1820534;77;21226;-78
2023/02/14 10:24:50;;;;;;;;;;;;;;;;;;;;;
2023/02/14 10:27:43;;;;;;;15.08;13.48;;;33.80;47.40;;;;;;1745575;79;21176;-86
2023/02/14 10:34:18;;;;;;;19.92;14.20;;;33.70;47.60;;;;;;1788269;78;21095;-90
2023/02/14 10:37:32;;;;;;;;;;;;;;;;;;;;;
2023/02/14 10:44:16;;;;;;;17.98;14.23;;;33.60;48.30;;;;;;1787995;79;21183;-88
2023/02/14 10:46:51;;;;;;;17.45;14.20;;;33.60;48.60;;;;;;1776615;79;21219;-89
2023/02/14 10:50:22;;;;;;;;;;;;;;;;;;;;;
2023/02/14 10:56:28;;;;;;;16.25;14.13;;;33.50;50.00;;;;;;1615379;87;21404;-87
2023/02/14 10:59:03;;;;;;;16.97;14.13;;;33.40;50.50;;;;;;1618116;87;21195;-87
2023/02/14 11:01:36;;;;;;;16.27;14.13;;;33.40;50.60;;;;;;1619394;87;21760;-88
2023/02/14 11:04:20;;;;;;;;;;;;;;;;;;;;;
2023/02/14 11:10:27;;;;;;;19.17;14.18;;;33.30;50.30;;;;;;1587700;88;21289;-87
2023/02/14 11:13:21;;;;;;;17.65;13.83;;;33.20;50.30;;;;;;1639609;85;21678;-88
2023/02/14 11:16:19;;;;;;;18.55;14.15;;;33.20;50.60;;;;;;1689617;83;21890;-87
2023/02/14 11:19:21;;;;;;;30.68;20.75;;;33.20;50.40;;;;;;1633397;86;21268;-88
2023/02/14 11:22:10;;;;;;;;;;;;;;;;;;;;;
2023/02/14 11:25:10;;;;;;;26.17;17.17;;;33.10;51.60;;;;;;1580378;88;21214;-88
2023/02/14 11:38:37;;;;;;;24.57;19.00;;;33.10;53.20;;;;;;1928649;74;22216;-87
2023/02/14 11:41:15;;;;;;;21.62;18.07;;;32.90;55.60;;;;;;1911297;73;21481;-85
2023/02/14 11:43:48;;;;;;;24.85;18.75;;;32.80;55.80;;;;;;1883621;75;21119;-84
2023/02/14 11:46:24;;;;;;;22.98;18.92;;;32.80;55.80;;;;;;1915346;72;21084;-85
2023/02/14 11:48:58;;;;;;;23.30;19.73;;;32.70;56.20;;;;;;1861558;75;21841;-84
2023/02/14 11:51:39;;;;;;;27.65;21.55;;;32.70;56.30;;;;;;1910952;73;21135;-84
2023/02/14 11:54:13;;;;;;;26.85;21.40;;;32.70;57.30;;;;;;1888779;74;21377;-85
2023/02/14 11:56:50;;;;;;;30.35;23.42;;;32.60;57.60;;;;;;1910934;74;21904;-87
2023/02/14 11:59:29;;;;;;;29.82;25.15;;;32.60;57.90;;;;;;1909654;74;21146;-84
2023/02/14 12:02:03;;;;;;;30.00;25.25;;;32.60;58.40;;;;;;1908060;74;22151;-86
2023/02/14 12:04:37;;;;;;;37.15;27.45;;;32.50;58.80;;;;;;1902473;74;21120;-87
2023/02/14 12:07:15;;;;;;;33.38;28.15;;;32.50;60.00;;;;;;1917476;73;21115;-84
2023/02/14 12:09:48;;;;;;;36.65;29.40;;;32.50;60.20;;;;;;1881842;75;21155;-81
2023/02/14 12:12:29;;;;;;;34.80;27.77;;;32.50;60.90;;;;;;1903164;74;21123;-84
2023/02/14 12:15:01;;;;;;;36.15;27.95;;;32.50;61.10;;;;;;1887490;76;21506;-84
2023/02/14 12:17:36;;;;;;;36.25;28.77;;;32.50;61.30;;;;;;1869307;74;21140;-84
2023/02/14 12:20:16;;;;;;;31.07;26.40;;;32.40;62.50;;;;;;1879919;75;21174;-83
2023/02/14 12:23:17;;;;;;;30.48;27.05;;;32.40;63.00;;;;;;1902711;74;21640;-85
2023/02/14 12:25:53;;;;;;;30.95;26.93;;;32.40;63.70;;;;;;1901269;74;21151;-84
2023/02/14 12:28:38;;;;;;;34.38;26.23;;;32.30;64.30;;;;;;1845649;76;21159;-85
2023/02/14 12:31:15;;;;;;;37.08;27.35;;;32.30;64.40;;;;;;1904618;74;21483;-85
2023/02/14 12:33:56;;;;;;;34.43;26.33;;;32.20;64.60;;;;;;1899053;74;21216;-85
2023/02/14 12:37:03;;;;;;;38.35;25.48;;;32.10;64.80;;;;;;1875587;76;21160;-85
2023/02/14 12:39:39;;;;;;;30.27;25.35;;;32.00;64.70;;;;;;1932324;74;21220;-85
2023/02/14 12:42:29;;;;;;;35.73;25.65;;;31.90;65.20;;;;;;1879863;76;21174;-86
2023/02/14 12:45:22;;;;;;;32.67;26.25;;;31.90;65.40;;;;;;1921154;74;21182;-86
2023/02/14 12:48:22;;;;;;;34.38;26.20;;;31.80;65.80;;;;;;1857333;77;21146;-84
2023/02/14 12:51:01;;;;;;;32.93;26.65;;;31.70;66.20;;;;;;1909408;74;21122;-85
2023/02/14 12:53:54;;;;;;;36.17;27.58;;;31.60;66.80;;;;;;1871523;76;22029;-85
2023/02/14 12:56:34;;;;;;;39.40;28.15;;;31.60;67.30;;;;;;1922103;73;21241;-85
2023/02/14 12:59:10;;;;;;;36.58;29.48;;;31.50;67.30;;;;;;1888987;75;21131;-83
2023/02/14 13:01:50;;;;;;;39.23;28.35;;;31.50;67.70;;;;;;1874184;75;21107;-84
2023/02/14 13:04:27;;;;;;;40.95;28.52;;;31.40;68.30;;;;;;1897709;74;21883;-84
2023/02/14 13:07:01;;;;;;;31.82;28.20;;;31.30;68.40;;;;;;1857053;77;21421;-83
2023/02/14 13:09:38;;;;;;;34.00;28.20;;;31.30;69.20;;;;;;1906648;74;21143;-83
2023/02/14 13:12:28;;;;;;;;;;;31.20;69.60;;;;;;1891701;76;21551;-84
2023/02/14 13:15:17;;;;;;;34.95;28.35;;;31.20;70.00;;;;;;1911903;74;20549;-83
2023/02/14 13:18:07;;;;;;;34.73;29.23;;;31.10;70.60;;;;;;1856992;77;21189;-83
2023/02/14 13:20:41;;;;;;;37.90;28.90;;;31.00;71.20;;;;;;1904581;74;21181;-85
2023/02/14 13:23:35;;;;;;;35.10;28.50;;;30.90;71.60;;;;;;1888080;76;21134;-84
2023/02/14 13:26:25;;;;;;;32.70;27.15;;;30.90;71.80;;;;;;1889300;75;21186;-86
2023/02/14 13:29:04;;;;;;;32.78;25.77;;;30.90;72.20;;;;;;1916539;74;21088;-85
2023/02/14 13:31:37;;;;;;;30.05;26.30;;;30.80;73.40;;;;;;1882161;76;21108;-85
2023/02/14 13:34:22;;;;;;;29.95;25.95;;;30.70;72.60;;;;;;1931955;74;21087;-84
2023/02/14 13:36:53;;;;;;;31.57;25.05;;;30.70;72.70;;;;;;1887739;76;21135;-85
2023/02/14 13:39:27;;;;;;;30.95;26.60;;;30.60;72.70;;;;;;1913728;74;21396;-86
2023/02/14 13:42:00;;;;;;;30.17;25.77;;;30.60;73.00;;;;;;1876412;76;21408;-85
2023/02/14 13:44:43;;;;;;;35.17;25.97;;;30.50;73.20;;;;;;1913510;75;21185;-86
2023/02/14 13:47:24;;;;;;;33.10;25.15;;;30.40;73.10;;;;;;1913444;75;21384;-85
2023/02/14 13:49:58;;;;;;;32.67;25.40;;;30.40;73.50;;;;;;1911320;75;21139;-85
2023/02/14 13:52:46;;;;;;;31.52;25.48;;;30.30;73.50;;;;;;1889325;75;21143;-85
2023/02/14 13:55:26;;;;;;;29.27;24.98;;;30.30;73.80;;;;;;1913239;75;21135;-84
2023/02/14 13:58:05;;;;;;;28.90;25.02;;;30.30;74.00;;;;;;1894482;75;21173;-85
2023/02/14 14:00:41;;;;;;;30.82;24.75;;;30.20;74.20;;;;;;1866388;75;21201;-84
2023/02/14 14:06:17;;;;;;;29.95;24.55;;;30.10;74.40;;;;;;1839237;75;21106;-86
2023/02/14 14:08:54;;;;;;;32.33;24.37;;;30.00;74.60;;;;;;1891869;74;21228;-86
2023/02/14 14:11:27;;;;;;;30.10;23.30;;;30.10;75.10;;;;;;1881600;75;21893;-85
2023/02/14 14:14:13;;;;;;;26.73;23.85;;;30.00;75.30;;;;;;1887195;75;21182;-86
2023/02/14 14:20:01;;;;;;;28.65;23.20;;;29.90;75.80;;;;;;1725995;81;21447;-85
2023/02/14 14:26:06;;;;;;;25.43;22.02;;;29.70;76.40;;;;;;1932245;73;22563;-86
2023/02/14 14:31:54;;;;;;;26.15;22.17;;;29.60;76.90;;;;;;1878599;73;21229;-84
2023/02/14 14:34:31;;;;;;;;;;;;;;;;;;;;;
2023/02/14 14:37:27;;;;;;;29.50;22.85;;;29.50;77.40;;;;;;1892015;75;21153;-86
2023/02/14 14:40:01;;;;;;;30.45;23.15;;;29.50;77.60;;;;;;1888425;75;21166;-85
2023/02/14 14:42:53;;;;;;;25.60;22.67;;;29.40;77.80;;;;;;1896771;74;21192;-84
2023/02/14 14:45:32;;;;;;;26.73;22.07;;;29.40;77.80;;;;;;1863590;76;21108;-85
2023/02/14 14:48:11;;;;;;;27.13;22.37;;;29.30;78.10;;;;;;1896925;73;21225;-84
2023/02/14 14:51:10;;;;;;;28.38;21.42;;;29.30;77.80;;;;;;1881063;75;21205;-84
2023/02/14 14:53:54;;;;;;;25.90;22.30;;;29.30;77.70;;;;;;1886447;75;21662;-87
2023/02/14 14:56:38;;;;;;;;;;;29.40;77.30;;;;;;1892212;75;21201;-82
2023/02/14 14:59:48;;;;;;;;;;;;;;;;;;;;;
2023/02/14 15:05:39;;;;;;;26.65;21.45;;;29.40;78.10;;;;;;1880574;75;21201;-87
2023/02/14 15:08:21;;;;;;;24.47;21.95;;;29.40;78.40;;;;;;1899631;75;21193;-86
2023/02/14 15:14:04;;;;;;;26.87;21.25;;;29.20;78.80;;;;;;1790334;79;21181;-85
2023/02/14 15:16:38;;;;;;;25.50;20.65;;;29.20;79.00;;;;;;1787414;77;21338;-85
2023/02/14 15:20:00;;;;;;;25.30;21.85;;;29.10;79.20;;;;;;1718894;80;21811;-85